Rimini, South Carolina
Current Conditions -  °F | °C
As of 10:01 AM on Sunday 23 Nov 2014 (Local Time) from KSSC Reporting Station
Moderate Rain Moderate Rain  
Wind Chill: 54°   Ceiling: 800
Heat Index: 54°   Visibility: 5mi
Dew Point: 54°   Wind: 9mph
Humidity: 100%   Direction: 60°ENE
Pressure: 30.1"   Gusts: NA
Location:  33.7445°N, 80.5249°W
Report Text: KSSC 231501Z AUTO 06008KT 5SM RA BR SCT005 OVC008 12/12 A3010 RMK AO2 CIG 004 RWY22 $
Loading
Personal Weather Stations






























Interactive Weather Map New forecast layout! Learn more

10-Day Weather Forecast

Advertisements
Track Severe Weather on mobile